sensor_id;sensor_type;location;lat;lon;timestamp;pressure;altitude;pressure_sealevel;temperature
10869;BMP180;62667;48.698;8.762;2023-03-19T00:00:23;95711.00;;;8.70
10869;BMP180;62667;48.698;8.762;2023-03-19T00:02:50;95701.00;;;8.60
10869;BMP180;62667;48.698;8.762;2023-03-19T00:05:18;95710.00;;;8.70
10869;BMP180;62667;48.698;8.762;2023-03-19T00:07:45;95715.00;;;8.80
10869;BMP180;62667;48.698;8.762;2023-03-19T00:10:15;95710.00;;;8.50
10869;BMP180;62667;48.698;8.762;2023-03-19T00:12:43;95702.00;;;8.50
10869;BMP180;62667;48.698;8.762;2023-03-19T00:15:11;95698.00;;;8.50
10869;BMP180;62667;48.698;8.762;2023-03-19T00:17:39;95710.00;;;8.60
10869;BMP180;62667;48.698;8.762;2023-03-19T00:20:08;95710.00;;;8.60
10869;BMP180;62667;48.698;8.762;2023-03-19T00:22:36;95708.00;;;8.60
10869;BMP180;62667;48.698;8.762;2023-03-19T00:25:04;95703.00;;;8.60
10869;BMP180;62667;48.698;8.762;2023-03-19T00:27:33;95702.00;;;8.60
10869;BMP180;62667;48.698;8.762;2023-03-19T00:30:01;95708.00;;;8.70
10869;BMP180;62667;48.698;8.762;2023-03-19T00:32:29;95710.00;;;8.60
10869;BMP180;62667;48.698;8.762;2023-03-19T00:34:58;95716.00;;;8.70
10869;BMP180;62667;48.698;8.762;2023-03-19T00:37:25;95724.00;;;8.70
10869;BMP180;62667;48.698;8.762;2023-03-19T00:39:53;95720.00;;;8.50
10869;BMP180;62667;48.698;8.762;2023-03-19T00:42:21;95741.00;;;8.50
10869;BMP180;62667;48.698;8.762;2023-03-19T00:44:50;95749.00;;;8.30
10869;BMP180;62667;48.698;8.762;2023-03-19T00:47:17;95741.00;;;8.10
10869;BMP180;62667;48.698;8.762;2023-03-19T00:49:45;95744.00;;;8.10
10869;BMP180;62667;48.698;8.762;2023-03-19T00:52:12;95754.00;;;8.30
10869;BMP180;62667;48.698;8.762;2023-03-19T00:54:40;95756.00;;;8.50
10869;BMP180;62667;48.698;8.762;2023-03-19T00:57:08;95768.00;;;8.60
10869;BMP180;62667;48.698;8.762;2023-03-19T00:59:35;95760.00;;;8.70
10869;BMP180;62667;48.698;8.762;2023-03-19T01:02:04;95788.00;;;8.70
10869;BMP180;62667;48.698;8.762;2023-03-19T01:04:32;95783.00;;;8.80
10869;BMP180;62667;48.698;8.762;2023-03-19T01:06:59;95779.00;;;8.70
10869;BMP180;62667;48.698;8.762;2023-03-19T01:09:27;95794.00;;;8.80
10869;BMP180;62667;48.698;8.762;2023-03-19T01:11:54;95786.00;;;8.80
10869;BMP180;62667;48.698;8.762;2023-03-19T01:14:22;95770.00;;;8.80
10869;BMP180;62667;48.698;8.762;2023-03-19T01:16:49;95775.00;;;8.80
10869;BMP180;62667;48.698;8.762;2023-03-19T01:19:18;95769.00;;;8.80
10869;BMP180;62667;48.698;8.762;2023-03-19T01:21:45;95759.00;;;8.60
10869;BMP180;62667;48.698;8.762;2023-03-19T01:24:14;95767.00;;;8.40
10869;BMP180;62667;48.698;8.762;2023-03-19T01:26:42;95759.00;;;8.40
10869;BMP180;62667;48.698;8.762;2023-03-19T01:29:09;95759.00;;;8.50
10869;BMP180;62667;48.698;8.762;2023-03-19T01:31:37;95760.00;;;8.50
10869;BMP180;62667;48.698;8.762;2023-03-19T01:34:04;95775.00;;;8.50
10869;BMP180;62667;48.698;8.762;2023-03-19T01:36:34;95765.00;;;8.60
10869;BMP180;62667;48.698;8.762;2023-03-19T01:39:01;95765.00;;;8.70
10869;BMP180;62667;48.698;8.762;2023-03-19T01:41:29;95763.00;;;8.80
10869;BMP180;62667;48.698;8.762;2023-03-19T01:43:56;95762.00;;;8.70
10869;BMP180;62667;48.698;8.762;2023-03-19T01:46:27;95771.00;;;8.50
10869;BMP180;62667;48.698;8.762;2023-03-19T01:48:59;95779.00;;;8.40
10869;BMP180;62667;48.698;8.762;2023-03-19T01:51:29;95774.00;;;8.30
10869;BMP180;62667;48.698;8.762;2023-03-19T01:54:01;95774.00;;;8.30
10869;BMP180;62667;48.698;8.762;2023-03-19T01:56:32;95771.00;;;8.20
10869;BMP180;62667;48.698;8.762;2023-03-19T01:59:03;95778.00;;;8.30
10869;BMP180;62667;48.698;8.762;2023-03-19T02:01:36;95781.00;;;8.20
10869;BMP180;62667;48.698;8.762;2023-03-19T02:04:04;95778.00;;;8.20
10869;BMP180;62667;48.698;8.762;2023-03-19T02:06:33;95771.00;;;8.20
10869;BMP180;62667;48.698;8.762;2023-03-19T02:09:02;95776.00;;;8.20
10869;BMP180;62667;48.698;8.762;2023-03-19T02:11:30;95774.00;;;8.10
10869;BMP180;62667;48.698;8.762;2023-03-19T02:13:58;95775.00;;;8.20
10869;BMP180;62667;48.698;8.762;2023-03-19T02:16:25;95781.00;;;7.70
10869;BMP180;62667;48.698;8.762;2023-03-19T02:18:53;95781.00;;;7.70
10869;BMP180;62667;48.698;8.762;2023-03-19T02:21:21;95785.00;;;7.60
10869;BMP180;62667;48.698;8.762;2023-03-19T02:23:52;95775.00;;;7.40
10869;BMP180;62667;48.698;8.762;2023-03-19T02:26:24;95783.00;;;7.40
10869;BMP180;62667;48.698;8.762;2023-03-19T02:28:54;95772.00;;;7.60
10869;BMP180;62667;48.698;8.762;2023-03-19T02:31:22;95768.00;;;7.80
10869;BMP180;62667;48.698;8.762;2023-03-19T02:33:57;95774.00;;;7.90
10869;BMP180;62667;48.698;8.762;2023-03-19T02:36:27;95763.00;;;8.00
10869;BMP180;62667;48.698;8.762;2023-03-19T02:38:57;95760.00;;;8.00
10869;BMP180;62667;48.698;8.762;2023-03-19T02:41:29;95760.00;;;8.00
10869;BMP180;62667;48.698;8.762;2023-03-19T02:43:58;95743.00;;;8.00
10869;BMP180;62667;48.698;8.762;2023-03-19T02:46:26;95762.00;;;8.00
10869;BMP180;62667;48.698;8.762;2023-03-19T02:48:54;95757.00;;;7.90
10869;BMP180;62667;48.698;8.762;2023-03-19T02:51:21;95762.00;;;7.80
10869;BMP180;62667;48.698;8.762;2023-03-19T02:53:49;95766.00;;;7.70
10869;BMP180;62667;48.698;8.762;2023-03-19T02:56:16;95769.00;;;7.70
10869;BMP180;62667;48.698;8.762;2023-03-19T02:58:45;95766.00;;;7.80
10869;BMP180;62667;48.698;8.762;2023-03-19T03:01:12;95764.00;;;7.80
10869;BMP180;62667;48.698;8.762;2023-03-19T03:03:40;95765.00;;;7.80
10869;BMP180;62667;48.698;8.762;2023-03-19T03:06:08;95777.00;;;7.80
10869;BMP180;62667;48.698;8.762;2023-03-19T03:08:35;95775.00;;;7.80
10869;BMP180;62667;48.698;8.762;2023-03-19T03:11:03;95767.00;;;7.80
10869;BMP180;62667;48.698;8.762;2023-03-19T03:13:30;95778.00;;;7.80
10869;BMP180;62667;48.698;8.762;2023-03-19T03:15:59;95774.00;;;7.80
10869;BMP180;62667;48.698;8.762;2023-03-19T03:18:27;95772.00;;;7.90
10869;BMP180;62667;48.698;8.762;2023-03-19T03:20:54;95775.00;;;7.90
10869;BMP180;62667;48.698;8.762;2023-03-19T03:23:22;95774.00;;;7.90
10869;BMP180;62667;48.698;8.762;2023-03-19T03:25:50;95781.00;;;7.80
10869;BMP180;62667;48.698;8.762;2023-03-19T03:28:18;95783.00;;;7.90
10869;BMP180;62667;48.698;8.762;2023-03-19T03:30:45;95786.00;;;7.90
10869;BMP180;62667;48.698;8.762;2023-03-19T03:33:15;95781.00;;;7.90
10869;BMP180;62667;48.698;8.762;2023-03-19T03:35:43;95787.00;;;7.80
10869;BMP180;62667;48.698;8.762;2023-03-19T03:38:10;95786.00;;;7.90
10869;BMP180;62667;48.698;8.762;2023-03-19T03:40:38;95789.00;;;7.90
10869;BMP180;62667;48.698;8.762;2023-03-19T03:43:06;95776.00;;;7.80
10869;BMP180;62667;48.698;8.762;2023-03-19T03:45:35;95795.00;;;7.80
10869;BMP180;62667;48.698;8.762;2023-03-19T03:48:03;95796.00;;;7.80
10869;BMP180;62667;48.698;8.762;2023-03-19T03:50:32;95786.00;;;7.50
10869;BMP180;62667;48.698;8.762;2023-03-19T03:53:00;95794.00;;;7.50
10869;BMP180;62667;48.698;8.762;2023-03-19T03:55:27;95791.00;;;7.60
10869;BMP180;62667;48.698;8.762;2023-03-19T03:57:54;95804.00;;;7.50
10869;BMP180;62667;48.698;8.762;2023-03-19T04:00:22;95804.00;;;7.40
10869;BMP180;62667;48.698;8.762;2023-03-19T04:02:50;95809.00;;;7.50
10869;BMP180;62667;48.698;8.762;2023-03-19T04:05:18;95801.00;;;7.60
10869;BMP180;62667;48.698;8.762;2023-03-19T04:07:47;95794.00;;;7.60
10869;BMP180;62667;48.698;8.762;2023-03-19T04:10:14;95810.00;;;7.60
10869;BMP180;62667;48.698;8.762;2023-03-19T04:12:41;95824.00;;;7.60
10869;BMP180;62667;48.698;8.762;2023-03-19T04:15:11;95809.00;;;7.70
10869;BMP180;62667;48.698;8.762;2023-03-19T04:17:38;95811.00;;;7.70
10869;BMP180;62667;48.698;8.762;2023-03-19T04:20:07;95811.00;;;7.70
10869;BMP180;62667;48.698;8.762;2023-03-19T04:22:36;95802.00;;;7.60
10869;BMP180;62667;48.698;8.762;2023-03-19T04:25:06;95807.00;;;7.70
10869;BMP180;62667;48.698;8.762;2023-03-19T04:27:37;95817.00;;;7.70
10869;BMP180;62667;48.698;8.762;2023-03-19T04:30:05;95811.00;;;7.80
10869;BMP180;62667;48.698;8.762;2023-03-19T04:32:33;95807.00;;;7.80
10869;BMP180;62667;48.698;8.762;2023-03-19T04:35:00;95809.00;;;7.80
10869;BMP180;62667;48.698;8.762;2023-03-19T04:37:28;95804.00;;;7.70
10869;BMP180;62667;48.698;8.762;2023-03-19T04:39:55;95810.00;;;7.60
10869;BMP180;62667;48.698;8.762;2023-03-19T04:42:24;95817.00;;;7.60
10869;BMP180;62667;48.698;8.762;2023-03-19T04:44:52;95808.00;;;7.50
10869;BMP180;62667;48.698;8.762;2023-03-19T04:47:19;95809.00;;;7.50
10869;BMP180;62667;48.698;8.762;2023-03-19T04:49:47;95811.00;;;7.50
10869;BMP180;62667;48.698;8.762;2023-03-19T04:52:14;95813.00;;;7.60
10869;BMP180;62667;48.698;8.762;2023-03-19T04:54:41;95810.00;;;7.60
10869;BMP180;62667;48.698;8.762;2023-03-19T04:57:09;95817.00;;;7.60
10869;BMP180;62667;48.698;8.762;2023-03-19T04:59:38;95826.00;;;7.60
10869;BMP180;62667;48.698;8.762;2023-03-19T05:02:05;95819.00;;;7.60
10869;BMP180;62667;48.698;8.762;2023-03-19T05:04:33;95835.00;;;7.70
10869;BMP180;62667;48.698;8.762;2023-03-19T05:07:01;95825.00;;;7.70
10869;BMP180;62667;48.698;8.762;2023-03-19T05:09:28;95829.00;;;7.70
10869;BMP180;62667;48.698;8.762;2023-03-19T05:11:56;95827.00;;;7.70
10869;BMP180;62667;48.698;8.762;2023-03-19T05:14:25;95829.00;;;7.70
10869;BMP180;62667;48.698;8.762;2023-03-19T05:16:54;95821.00;;;7.60
10869;BMP180;62667;48.698;8.762;2023-03-19T05:19:21;95824.00;;;7.70
10869;BMP180;62667;48.698;8.762;2023-03-19T05:21:50;95823.00;;;7.70
10869;BMP180;62667;48.698;8.762;2023-03-19T05:24:17;95836.00;;;7.80
10869;BMP180;62667;48.698;8.762;2023-03-19T05:26:45;95832.00;;;7.70
10869;BMP180;62667;48.698;8.762;2023-03-19T05:29:12;95832.00;;;7.60
10869;BMP180;62667;48.698;8.762;2023-03-19T05:31:40;95831.00;;;7.60
10869;BMP180;62667;48.698;8.762;2023-03-19T05:34:08;95835.00;;;7.60
10869;BMP180;62667;48.698;8.762;2023-03-19T05:36:36;95823.00;;;7.60
10869;BMP180;62667;48.698;8.762;2023-03-19T05:39:03;95841.00;;;7.60
10869;BMP180;62667;48.698;8.762;2023-03-19T05:41:31;95839.00;;;7.70
10869;BMP180;62667;48.698;8.762;2023-03-19T05:43:58;95837.00;;;7.80
10869;BMP180;62667;48.698;8.762;2023-03-19T05:46:26;95846.00;;;7.80
10869;BMP180;62667;48.698;8.762;2023-03-19T05:48:53;95845.00;;;7.90
10869;BMP180;62667;48.698;8.762;2023-03-19T05:51:22;95845.00;;;7.90
10869;BMP180;62667;48.698;8.762;2023-03-19T05:53:49;95845.00;;;7.90
10869;BMP180;62667;48.698;8.762;2023-03-19T05:56:17;95851.00;;;7.90
10869;BMP180;62667;48.698;8.762;2023-03-19T05:58:44;95854.00;;;7.90
10869;BMP180;62667;48.698;8.762;2023-03-19T06:01:12;95853.00;;;7.90
10869;BMP180;62667;48.698;8.762;2023-03-19T06:03:39;95861.00;;;7.80
10869;BMP180;62667;48.698;8.762;2023-03-19T06:06:07;95854.00;;;7.80
10869;BMP180;62667;48.698;8.762;2023-03-19T06:08:36;95858.00;;;7.90
10869;BMP180;62667;48.698;8.762;2023-03-19T06:11:03;95852.00;;;7.90
10869;BMP180;62667;48.698;8.762;2023-03-19T06:13:31;95857.00;;;8.00
10869;BMP180;62667;48.698;8.762;2023-03-19T06:15:59;95852.00;;;8.00
10869;BMP180;62667;48.698;8.762;2023-03-19T06:18:27;95863.00;;;7.90
10869;BMP180;62667;48.698;8.762;2023-03-19T06:20:54;95858.00;;;7.90
10869;BMP180;62667;48.698;8.762;2023-03-19T06:23:21;95861.00;;;8.00
10869;BMP180;62667;48.698;8.762;2023-03-19T06:25:50;95853.00;;;8.00
10869;BMP180;62667;48.698;8.762;2023-03-19T06:28:18;95851.00;;;8.00
10869;BMP180;62667;48.698;8.762;2023-03-19T06:30:45;95850.00;;;8.10
10869;BMP180;62667;48.698;8.762;2023-03-19T06:33:13;95845.00;;;8.10
10869;BMP180;62667;48.698;8.762;2023-03-19T06:35:40;95851.00;;;8.10
10869;BMP180;62667;48.698;8.762;2023-03-19T06:38:08;95856.00;;;8.20
10869;BMP180;62667;48.698;8.762;2023-03-19T06:40:35;95851.00;;;8.10
10869;BMP180;62667;48.698;8.762;2023-03-19T06:43:04;95848.00;;;8.10
10869;BMP180;62667;48.698;8.762;2023-03-19T06:45:32;95853.00;;;8.10
10869;BMP180;62667;48.698;8.762;2023-03-19T06:47:59;95856.00;;;8.20
10869;BMP180;62667;48.698;8.762;2023-03-19T06:50:27;95852.00;;;8.10
10869;BMP180;62667;48.698;8.762;2023-03-19T06:52:54;95860.00;;;8.20
10869;BMP180;62667;48.698;8.762;2023-03-19T06:55:22;95856.00;;;8.30
10869;BMP180;62667;48.698;8.762;2023-03-19T06:57:50;95852.00;;;8.40
10869;BMP180;62667;48.698;8.762;2023-03-19T07:00:19;95854.00;;;8.50
10869;BMP180;62667;48.698;8.762;2023-03-19T07:02:47;95860.00;;;8.50
10869;BMP180;62667;48.698;8.762;2023-03-19T07:05:15;95866.00;;;8.60
10869;BMP180;62667;48.698;8.762;2023-03-19T07:07:42;95856.00;;;8.70
10869;BMP180;62667;48.698;8.762;2023-03-19T07:10:10;95862.00;;;8.90
10869;BMP180;62667;48.698;8.762;2023-03-19T07:12:38;95858.00;;;9.00
10869;BMP180;62667;48.698;8.762;2023-03-19T07:15:06;95868.00;;;9.20
10869;BMP180;62667;48.698;8.762;2023-03-19T07:17:35;95868.00;;;9.20
10869;BMP180;62667;48.698;8.762;2023-03-19T07:20:03;95865.00;;;9.30
10869;BMP180;62667;48.698;8.762;2023-03-19T07:22:31;95873.00;;;9.30
10869;BMP180;62667;48.698;8.762;2023-03-19T07:24:58;95869.00;;;9.50
10869;BMP180;62667;48.698;8.762;2023-03-19T07:27:26;95868.00;;;9.60
10869;BMP180;62667;48.698;8.762;2023-03-19T07:29:54;95870.00;;;9.70
10869;BMP180;62667;48.698;8.762;2023-03-19T07:32:21;95872.00;;;9.70
10869;BMP180;62667;48.698;8.762;2023-03-19T07:34:50;95872.00;;;9.90
10869;BMP180;62667;48.698;8.762;2023-03-19T07:37:18;95874.00;;;9.90
10869;BMP180;62667;48.698;8.762;2023-03-19T07:39:45;95873.00;;;10.00
10869;BMP180;62667;48.698;8.762;2023-03-19T07:42:13;95872.00;;;10.00
10869;BMP180;62667;48.698;8.762;2023-03-19T07:44:40;95868.00;;;10.00
10869;BMP180;62667;48.698;8.762;2023-03-19T07:47:08;95869.00;;;10.00
10869;BMP180;62667;48.698;8.762;2023-03-19T07:49:35;95870.00;;;10.10
10869;BMP180;62667;48.698;8.762;2023-03-19T07:52:05;95873.00;;;9.90
10869;BMP180;62667;48.698;8.762;2023-03-19T07:54:32;95876.00;;;9.90
10869;BMP180;62667;48.698;8.762;2023-03-19T07:57:00;95878.00;;;9.80
10869;BMP180;62667;48.698;8.762;2023-03-19T07:59:28;95878.00;;;9.70
10869;BMP180;62667;48.698;8.762;2023-03-19T08:01:55;95884.00;;;9.90
10869;BMP180;62667;48.698;8.762;2023-03-19T08:04:23;95880.00;;;10.10
10869;BMP180;62667;48.698;8.762;2023-03-19T08:06:50;95880.00;;;10.30
10869;BMP180;62667;48.698;8.762;2023-03-19T08:09:20;95884.00;;;10.40
10869;BMP180;62667;48.698;8.762;2023-03-19T08:11:47;95876.00;;;10.50
10869;BMP180;62667;48.698;8.762;2023-03-19T08:14:15;95875.00;;;10.90
10869;BMP180;62667;48.698;8.762;2023-03-19T08:16:44;95875.00;;;11.00
10869;BMP180;62667;48.698;8.762;2023-03-19T08:19:11;95882.00;;;11.10
10869;BMP180;62667;48.698;8.762;2023-03-19T08:21:39;95874.00;;;11.30
10869;BMP180;62667;48.698;8.762;2023-03-19T08:24:07;95874.00;;;11.30
10869;BMP180;62667;48.698;8.762;2023-03-19T08:26:35;95878.00;;;11.40
10869;BMP180;62667;48.698;8.762;2023-03-19T08:29:04;95875.00;;;11.30
10869;BMP180;62667;48.698;8.762;2023-03-19T08:31:32;95877.00;;;11.30
10869;BMP180;62667;48.698;8.762;2023-03-19T08:33:59;95868.00;;;11.40
10869;BMP180;62667;48.698;8.762;2023-03-19T08:36:28;95871.00;;;11.50
10869;BMP180;62667;48.698;8.762;2023-03-19T08:38:56;95880.00;;;11.70
10869;BMP180;62667;48.698;8.762;2023-03-19T08:41:24;95876.00;;;11.90
10869;BMP180;62667;48.698;8.762;2023-03-19T08:43:53;95870.00;;;12.00
10869;BMP180;62667;48.698;8.762;2023-03-19T08:46:20;95879.00;;;11.90
10869;BMP180;62667;48.698;8.762;2023-03-19T08:48:48;95879.00;;;12.20
10869;BMP180;62667;48.698;8.762;2023-03-19T08:51:15;95876.00;;;12.50
10869;BMP180;62667;48.698;8.762;2023-03-19T08:53:43;95879.00;;;12.40
10869;BMP180;62667;48.698;8.762;2023-03-19T08:56:10;95889.00;;;12.40
10869;BMP180;62667;48.698;8.762;2023-03-19T08:58:38;95882.00;;;12.30
10869;BMP180;62667;48.698;8.762;2023-03-19T09:01:10;95880.00;;;12.50
10869;BMP180;62667;48.698;8.762;2023-03-19T09:03:38;95877.00;;;12.60
10869;BMP180;62667;48.698;8.762;2023-03-19T09:06:08;95868.00;;;12.40
10869;BMP180;62667;48.698;8.762;2023-03-19T09:08:37;95878.00;;;12.60
10869;BMP180;62667;48.698;8.762;2023-03-19T09:11:05;95881.00;;;12.70
10869;BMP180;62667;48.698;8.762;2023-03-19T09:13:33;95885.00;;;13.00
10869;BMP180;62667;48.698;8.762;2023-03-19T09:16:00;95883.00;;;12.90
10869;BMP180;62667;48.698;8.762;2023-03-19T09:18:29;95883.00;;;13.10
10869;BMP180;62667;48.698;8.762;2023-03-19T09:20:57;95886.00;;;13.10
10869;BMP180;62667;48.698;8.762;2023-03-19T09:23:25;95886.00;;;13.30
10869;BMP180;62667;48.698;8.762;2023-03-19T09:25:52;95880.00;;;13.30
10869;BMP180;62667;48.698;8.762;2023-03-19T09:28:20;95886.00;;;13.70
10869;BMP180;62667;48.698;8.762;2023-03-19T09:30:48;95884.00;;;13.70
10869;BMP180;62667;48.698;8.762;2023-03-19T09:33:18;95883.00;;;13.30
10869;BMP180;62667;48.698;8.762;2023-03-19T09:35:51;95884.00;;;13.40
10869;BMP180;62667;48.698;8.762;2023-03-19T09:38:19;95876.00;;;13.60
10869;BMP180;62667;48.698;8.762;2023-03-19T09:40:49;95880.00;;;13.50
10869;BMP180;62667;48.698;8.762;2023-03-19T09:43:35;95871.00;;;13.10
10869;BMP180;62667;48.698;8.762;2023-03-19T09:46:10;95876.00;;;13.60
10869;BMP180;62667;48.698;8.762;2023-03-19T09:48:45;95880.00;;;13.50
10869;BMP180;62667;48.698;8.762;2023-03-19T09:51:20;95874.00;;;13.70
10869;BMP180;62667;48.698;8.762;2023-03-19T09:53:56;95858.00;;;13.50
10869;BMP180;62667;48.698;8.762;2023-03-19T09:56:25;95860.00;;;13.60
10869;BMP180;62667;48.698;8.762;2023-03-19T09:58:53;95865.00;;;14.00
10869;BMP180;62667;48.698;8.762;2023-03-19T10:01:25;95853.00;;;14.10
10869;BMP180;62667;48.698;8.762;2023-03-19T10:04:16;95858.00;;;14.30
10869;BMP180;62667;48.698;8.762;2023-03-19T10:06:47;95858.00;;;14.10
10869;BMP180;62667;48.698;8.762;2023-03-19T10:09:24;95865.00;;;14.00
10869;BMP180;62667;48.698;8.762;2023-03-19T10:12:11;95867.00;;;14.20
10869;BMP180;62667;48.698;8.762;2023-03-19T10:15:05;95861.00;;;14.70
10869;BMP180;62667;48.698;8.762;2023-03-19T10:17:39;95859.00;;;14.70
10869;BMP180;62667;48.698;8.762;2023-03-19T10:20:14;95861.00;;;14.60
10869;BMP180;62667;48.698;8.762;2023-03-19T10:22:46;95855.00;;;15.10
10869;BMP180;62667;48.698;8.762;2023-03-19T10:25:19;95864.00;;;14.80
10869;BMP180;62667;48.698;8.762;2023-03-19T10:27:52;95864.00;;;15.10
10869;BMP180;62667;48.698;8.762;2023-03-19T10:30:22;95860.00;;;15.00
10869;BMP180;62667;48.698;8.762;2023-03-19T10:32:55;95851.00;;;15.20
10869;BMP180;62667;48.698;8.762;2023-03-19T10:35:35;95866.00;;;15.40
10869;BMP180;62667;48.698;8.762;2023-03-19T10:38:15;95863.00;;;15.00
10869;BMP180;62667;48.698;8.762;2023-03-19T10:40:55;95856.00;;;14.80
10869;BMP180;62667;48.698;8.762;2023-03-19T10:43:27;95837.00;;;15.00
10869;BMP180;62667;48.698;8.762;2023-03-19T10:45:57;95846.00;;;15.30
10869;BMP180;62667;48.698;8.762;2023-03-19T10:48:25;95849.00;;;15.20
10869;BMP180;62667;48.698;8.762;2023-03-19T10:50:57;95856.00;;;15.10
10869;BMP180;62667;48.698;8.762;2023-03-19T10:53:33;95844.00;;;15.00
10869;BMP180;62667;48.698;8.762;2023-03-19T10:56:03;95853.00;;;14.80
10869;BMP180;62667;48.698;8.762;2023-03-19T10:58:32;95852.00;;;14.90
10869;BMP180;62667;48.698;8.762;2023-03-19T11:01:04;95832.00;;;15.30
10869;BMP180;62667;48.698;8.762;2023-03-19T11:03:34;95847.00;;;15.40
10869;BMP180;62667;48.698;8.762;2023-03-19T11:06:05;95851.00;;;15.30
10869;BMP180;62667;48.698;8.762;2023-03-19T11:08:36;95849.00;;;14.70
10869;BMP180;62667;48.698;8.762;2023-03-19T11:11:04;95848.00;;;15.00
10869;BMP180;62667;48.698;8.762;2023-03-19T11:13:34;95842.00;;;15.50
10869;BMP180;62667;48.698;8.762;2023-03-19T11:16:03;95848.00;;;15.80
10869;BMP180;62667;48.698;8.762;2023-03-19T11:18:36;95850.00;;;15.60
10869;BMP180;62667;48.698;8.762;2023-03-19T11:21:07;95848.00;;;15.60
10869;BMP180;62667;48.698;8.762;2023-03-19T11:23:40;95851.00;;;15.60
10869;BMP180;62667;48.698;8.762;2023-03-19T11:26:08;95856.00;;;15.50
10869;BMP180;62667;48.698;8.762;2023-03-19T11:28:37;95847.00;;;15.80
10869;BMP180;62667;48.698;8.762;2023-03-19T11:31:11;95849.00;;;15.70
10869;BMP180;62667;48.698;8.762;2023-03-19T11:33:57;95852.00;;;14.80
10869;BMP180;62667;48.698;8.762;2023-03-19T11:36:31;95842.00;;;15.00
10869;BMP180;62667;48.698;8.762;2023-03-19T11:39:16;95835.00;;;14.90
10869;BMP180;62667;48.698;8.762;2023-03-19T11:42:05;95839.00;;;15.30
10869;BMP180;62667;48.698;8.762;2023-03-19T11:44:42;95838.00;;;15.40
10869;BMP180;62667;48.698;8.762;2023-03-19T11:47:18;95845.00;;;15.20
10869;BMP180;62667;48.698;8.762;2023-03-19T11:50:01;95839.00;;;15.10
10869;BMP180;62667;48.698;8.762;2023-03-19T11:52:36;95841.00;;;14.70
10869;BMP180;62667;48.698;8.762;2023-03-19T11:55:18;95849.00;;;14.80
10869;BMP180;62667;48.698;8.762;2023-03-19T11:58:02;95851.00;;;14.80
10869;BMP180;62667;48.698;8.762;2023-03-19T12:00:35;95842.00;;;14.90
10869;BMP180;62667;48.698;8.762;2023-03-19T12:03:52;95845.00;;;14.60
10869;BMP180;62667;48.698;8.762;2023-03-19T12:06:32;95842.00;;;14.50
10869;BMP180;62667;48.698;8.762;2023-03-19T12:09:05;95835.00;;;14.60
10869;BMP180;62667;48.698;8.762;2023-03-19T12:11:42;95829.00;;;14.90
10869;BMP180;62667;48.698;8.762;2023-03-19T12:14:23;95827.00;;;14.80
10869;BMP180;62667;48.698;8.762;2023-03-19T12:17:04;95844.00;;;15.00
10869;BMP180;62667;48.698;8.762;2023-03-19T12:22:37;95850.00;;;14.70
10869;BMP180;62667;48.698;8.762;2023-03-19T12:25:23;95842.00;;;14.40
10869;BMP180;62667;48.698;8.762;2023-03-19T12:27:56;95839.00;;;14.80
10869;BMP180;62667;48.698;8.762;2023-03-19T12:30:33;95838.00;;;15.10
10869;BMP180;62667;48.698;8.762;2023-03-19T12:33:15;95842.00;;;14.60
10869;BMP180;62667;48.698;8.762;2023-03-19T12:35:51;95839.00;;;14.80
10869;BMP180;62667;48.698;8.762;2023-03-19T12:38:23;95850.00;;;14.70
10869;BMP180;62667;48.698;8.762;2023-03-19T12:40:55;95847.00;;;14.30
10869;BMP180;62667;48.698;8.762;2023-03-19T12:43:29;95841.00;;;14.10
10869;BMP180;62667;48.698;8.762;2023-03-19T12:46:02;95846.00;;;14.30
10869;BMP180;62667;48.698;8.762;2023-03-19T12:48:37;95839.00;;;14.50
10869;BMP180;62667;48.698;8.762;2023-03-19T12:51:08;95847.00;;;14.30
10869;BMP180;62667;48.698;8.762;2023-03-19T12:53:45;95844.00;;;14.00
10869;BMP180;62667;48.698;8.762;2023-03-19T12:56:18;95854.00;;;14.00
10869;BMP180;62667;48.698;8.762;2023-03-19T12:58:54;95845.00;;;14.10
10869;BMP180;62667;48.698;8.762;2023-03-19T13:01:28;95849.00;;;14.00
10869;BMP180;62667;48.698;8.762;2023-03-19T13:04:01;95839.00;;;14.10
10869;BMP180;62667;48.698;8.762;2023-03-19T13:06:34;95841.00;;;13.70
10869;BMP180;62667;48.698;8.762;2023-03-19T13:09:07;95844.00;;;14.10
10869;BMP180;62667;48.698;8.762;2023-03-19T13:11:42;95841.00;;;14.10
10869;BMP180;62667;48.698;8.762;2023-03-19T13:14:16;95858.00;;;13.70
10869;BMP180;62667;48.698;8.762;2023-03-19T13:16:49;95844.00;;;14.10
10869;BMP180;62667;48.698;8.762;2023-03-19T13:19:24;95830.00;;;14.00
10869;BMP180;62667;48.698;8.762;2023-03-19T13:21:55;95834.00;;;13.80
10869;BMP180;62667;48.698;8.762;2023-03-19T13:24:26;95843.00;;;14.30
10869;BMP180;62667;48.698;8.762;2023-03-19T13:26:55;95838.00;;;14.10
10869;BMP180;62667;48.698;8.762;2023-03-19T13:29:28;95839.00;;;14.30
10869;BMP180;62667;48.698;8.762;2023-03-19T13:32:01;95843.00;;;14.50
10869;BMP180;62667;48.698;8.762;2023-03-19T13:34:32;95842.00;;;14.00
10869;BMP180;62667;48.698;8.762;2023-03-19T13:37:03;95838.00;;;14.10
10869;BMP180;62667;48.698;8.762;2023-03-19T13:39:34;95844.00;;;14.40
10869;BMP180;62667;48.698;8.762;2023-03-19T13:42:35;95853.00;;;14.40
10869;BMP180;62667;48.698;8.762;2023-03-19T13:45:29;95842.00;;;14.20
10869;BMP180;62667;48.698;8.762;2023-03-19T13:47:58;95855.00;;;14.00
10869;BMP180;62667;48.698;8.762;2023-03-19T13:50:55;95852.00;;;13.90
10869;BMP180;62667;48.698;8.762;2023-03-19T13:53:37;95839.00;;;14.00
10869;BMP180;62667;48.698;8.762;2023-03-19T13:56:08;95849.00;;;13.90
10869;BMP180;62667;48.698;8.762;2023-03-19T13:58:48;95851.00;;;13.70
10869;BMP180;62667;48.698;8.762;2023-03-19T14:01:38;95838.00;;;13.80
10869;BMP180;62667;48.698;8.762;2023-03-19T14:04:14;95830.00;;;14.00
10869;BMP180;62667;48.698;8.762;2023-03-19T14:06:45;95831.00;;;14.10
10869;BMP180;62667;48.698;8.762;2023-03-19T14:09:38;95831.00;;;14.20
10869;BMP180;62667;48.698;8.762;2023-03-19T14:12:21;95827.00;;;14.10
10869;BMP180;62667;48.698;8.762;2023-03-19T14:14:50;95820.00;;;14.10
10869;BMP180;62667;48.698;8.762;2023-03-19T14:17:23;95816.00;;;14.30
10869;BMP180;62667;48.698;8.762;2023-03-19T14:19:52;95814.00;;;14.20
10869;BMP180;62667;48.698;8.762;2023-03-19T14:22:28;95820.00;;;14.40
10869;BMP180;62667;48.698;8.762;2023-03-19T14:25:14;95821.00;;;14.30
10869;BMP180;62667;48.698;8.762;2023-03-19T14:27:44;95819.00;;;14.30
10869;BMP180;62667;48.698;8.762;2023-03-19T14:30:30;95819.00;;;14.40
10869;BMP180;62667;48.698;8.762;2023-03-19T14:33:04;95812.00;;;14.30
10869;BMP180;62667;48.698;8.762;2023-03-19T14:35:35;95824.00;;;14.40
10869;BMP180;62667;48.698;8.762;2023-03-19T14:38:12;95814.00;;;14.30